Time;durP1;ratioP1;P1;durP2;ratioP2;P2;SDS_P1;SDS_P2;PMS_P1;PMS_P2;Temp;Humidity;BMP_temperature;BMP_pressure;BME280_temperature;BME280_humidity;BME280_pressure;Samples;Min_cycle;Max_cycle;Signal;HPM_P1;HPM_P2
2022/07/06 00:01:51;;;;;;;8.05;3.80;;;21.70;59.20;;;;;;5042494;28;20432;-71
2022/07/06 00:04:20;;;;;;;6.30;3.80;;;21.70;59.80;;;;;;5042192;28;20052;-70
2022/07/06 00:06:46;;;;;;;4.68;3.90;;;21.70;59.80;;;;;;5040822;28;20386;-70
2022/07/06 00:09:12;;;;;;;6.00;3.80;;;21.60;59.70;;;;;;5042283;28;20017;-71
2022/07/06 00:11:38;;;;;;;5.55;3.72;;;21.60;59.70;;;;;;5042306;28;20020;-71
2022/07/06 00:14:05;;;;;;;8.23;4.07;;;21.60;60.10;;;;;;5040766;28;20506;-71
2022/07/06 00:16:31;;;;;;;4.88;3.83;;;21.60;60.10;;;;;;5042364;28;20151;-70
2022/07/06 00:18:57;;;;;;;6.90;3.40;;;21.60;60.00;;;;;;5042009;28;20092;-70
2022/07/06 00:21:23;;;;;;;4.50;3.45;;;21.50;60.10;;;;;;5040604;28;20029;-69
2022/07/06 00:23:49;;;;;;;5.30;3.67;;;21.50;60.40;;;;;;5042412;28;20009;-72
2022/07/06 00:26:15;;;;;;;8.63;4.43;;;21.50;60.30;;;;;;5041648;28;20364;-69
2022/07/06 00:28:41;;;;;;;4.00;3.55;;;21.50;60.60;;;;;;5040667;28;20096;-70
2022/07/06 00:31:07;;;;;;;9.25;4.15;;;21.40;60.50;;;;;;5034059;28;20025;-69
2022/07/06 00:33:33;;;;;;;5.32;4.25;;;21.40;60.60;;;;;;5031788;28;20029;-70
2022/07/06 00:35:58;;;;;;;5.88;3.85;;;21.40;60.80;;;;;;5039036;28;20018;-71
2022/07/06 00:38:24;;;;;;;7.40;3.38;;;21.30;60.90;;;;;;5040354;28;20545;-71
2022/07/06 00:40:50;;;;;;;8.32;4.15;;;21.30;61.10;;;;;;5042229;28;20148;-70
2022/07/06 00:43:16;;;;;;;5.68;3.88;;;21.30;61.50;;;;;;5049467;28;20021;-69
2022/07/06 00:45:43;;;;;;;4.70;3.55;;;21.20;61.70;;;;;;5051595;28;20025;-69
2022/07/06 00:48:09;;;;;;;8.18;4.03;;;21.20;61.40;;;;;;5051673;28;20116;-69
2022/07/06 00:50:35;;;;;;;6.03;4.35;;;21.20;61.20;;;;;;5052112;28;20144;-69
2022/07/06 00:53:03;;;;;;;6.97;5.03;;;21.20;61.40;;;;;;5056177;28;20053;-70
2022/07/06 00:55:31;;;;;;;6.97;4.20;;;21.10;61.30;;;;;;5055758;28;20052;-70
2022/07/06 00:57:57;;;;;;;6.47;4.13;;;21.10;61.30;;;;;;5054651;28;20485;-69
2022/07/06 01:00:26;;;;;;;6.13;3.70;;;21.10;61.20;;;;;;5054709;28;20033;-71
2022/07/06 01:02:52;;;;;;;5.05;3.80;;;21.00;61.20;;;;;;5055738;28;20368;-69
2022/07/06 01:05:19;;;;;;;4.35;3.92;;;21.00;61.20;;;;;;5056097;28;20029;-70
2022/07/06 01:07:47;;;;;;;5.70;4.45;;;20.90;61.40;;;;;;5055448;28;20025;-71
2022/07/06 01:10:14;;;;;;;5.38;4.35;;;20.90;62.00;;;;;;5055330;28;20013;-72
2022/07/06 01:12:41;;;;;;;8.95;4.60;;;20.90;62.20;;;;;;5055174;28;20021;-69
2022/07/06 01:15:10;;;;;;;7.25;4.97;;;20.90;62.20;;;;;;5055204;28;20070;-69
2022/07/06 01:17:38;;;;;;;5.32;4.05;;;20.80;62.30;;;;;;5055273;28;20083;-69
2022/07/06 01:20:16;;;;;;;6.03;4.57;;;20.80;62.30;;;;;;5054949;28;20531;-71
2022/07/06 01:22:43;;;;;;;4.93;4.35;;;20.80;62.70;;;;;;5055100;28;20028;-71
2022/07/06 01:25:10;;;;;;;5.82;4.05;;;20.80;62.30;;;;;;5042604;28;20108;-70
2022/07/06 01:27:38;;;;;;;10.60;4.65;;;20.80;62.60;;;;;;5034359;28;20017;-69
2022/07/06 01:30:16;;;;;;;5.80;4.22;;;20.70;62.50;;;;;;5033970;28;20029;-70
2022/07/06 01:32:42;;;;;;;7.45;4.38;;;20.70;63.70;;;;;;5035069;28;20087;-70
2022/07/06 01:35:12;;;;;;;5.82;4.22;;;20.70;62.80;;;;;;5034889;28;20544;-70
2022/07/06 01:37:39;;;;;;;6.43;4.40;;;20.70;62.90;;;;;;5033984;28;20374;-68
2022/07/06 01:40:08;;;;;;;5.00;4.50;;;20.60;62.80;;;;;;5034862;28;20033;-71
2022/07/06 01:42:34;;;;;;;7.22;4.05;;;20.60;62.80;;;;;;5034937;28;20025;-70
2022/07/06 01:45:01;;;;;;;9.88;4.45;;;20.60;62.90;;;;;;5034920;28;20026;-70
2022/07/06 01:47:27;;;;;;;7.30;4.57;;;20.60;63.10;;;;;;5034738;28;20093;-68
2022/07/06 01:49:53;;;;;;;8.05;4.35;;;20.60;63.20;;;;;;5033573;28;20021;-69
2022/07/06 01:52:18;;;;;;;9.60;4.22;;;20.50;63.10;;;;;;5033413;28;20036;-70
2022/07/06 01:54:45;;;;;;;11.13;4.68;;;20.50;63.20;;;;;;5033398;28;20033;-70
2022/07/06 01:57:10;;;;;;;5.75;4.55;;;20.50;63.40;;;;;;5033089;28;20061;-69
2022/07/06 01:59:36;;;;;;;7.40;4.57;;;20.50;63.60;;;;;;5034549;28;20037;-71
2022/07/06 02:02:02;;;;;;;6.95;3.95;;;20.40;63.60;;;;;;5034216;28;20075;-72
2022/07/06 02:04:28;;;;;;;6.30;4.28;;;20.40;63.50;;;;;;5034475;28;20545;-71
2022/07/06 02:06:54;;;;;;;5.70;4.68;;;20.40;63.70;;;;;;5034317;28;20017;-70
2022/07/06 02:09:20;;;;;;;7.88;4.07;;;20.40;63.90;;;;;;5033986;28;20025;-70
2022/07/06 02:11:46;;;;;;;6.82;4.32;;;20.40;63.80;;;;;;5032906;28;20056;-71
2022/07/06 02:14:11;;;;;;;4.90;4.38;;;20.40;64.70;;;;;;5034267;28;20423;-69
2022/07/06 02:16:37;;;;;;;5.03;4.25;;;20.30;63.80;;;;;;5034220;28;20517;-70
2022/07/06 02:19:03;;;;;;;6.72;4.75;;;20.30;63.90;;;;;;5034031;28;20072;-71
2022/07/06 02:21:29;;;;;;;9.15;4.35;;;20.30;64.00;;;;;;5033874;28;20373;-69
2022/07/06 02:23:55;;;;;;;5.10;4.38;;;20.20;64.10;;;;;;5033834;28;20105;-70
2022/07/06 02:26:21;;;;;;;5.95;4.45;;;20.30;64.10;;;;;;5032330;28;20120;-69
2022/07/06 02:28:47;;;;;;;5.68;4.45;;;20.30;64.20;;;;;;5033967;28;20026;-71
2022/07/06 02:31:14;;;;;;;5.93;4.60;;;20.20;64.20;;;;;;5033530;28;20056;-69
2022/07/06 02:33:40;;;;;;;7.28;4.60;;;20.20;64.60;;;;;;5033483;28;20052;-71
2022/07/06 02:36:07;;;;;;;6.18;4.45;;;20.10;64.40;;;;;;5033749;28;20059;-72
2022/07/06 02:38:33;;;;;;;5.05;4.40;;;20.10;64.60;;;;;;5033815;28;20368;-70
2022/07/06 02:40:59;;;;;;;8.60;4.80;;;20.10;64.40;;;;;;5033725;28;20478;-71
2022/07/06 02:43:24;;;;;;;5.55;4.22;;;20.10;64.40;;;;;;5033739;28;20055;-69
2022/07/06 02:45:50;;;;;;;5.45;4.43;;;20.10;64.50;;;;;;5033616;28;20467;-70
2022/07/06 02:48:17;;;;;;;4.78;4.15;;;20.10;64.80;;;;;;5033377;28;20104;-70
2022/07/06 02:50:43;;;;;;;9.27;4.68;;;20.00;64.60;;;;;;5033481;28;20186;-69
2022/07/06 02:53:09;;;;;;;6.88;4.60;;;20.00;64.60;;;;;;5033336;28;20108;-69
2022/07/06 02:55:35;;;;;;;6.55;4.25;;;20.00;64.60;;;;;;5033223;28;20061;-71
2022/07/06 02:58:01;;;;;;;6.00;4.30;;;19.90;64.60;;;;;;5032387;28;20021;-69
2022/07/06 03:00:26;;;;;;;4.85;4.28;;;19.90;64.80;;;;;;5033407;28;20033;-70
2022/07/06 03:02:52;;;;;;;6.43;5.07;;;19.90;65.00;;;;;;5033402;28;20021;-70
2022/07/06 03:05:18;;;;;;;8.82;4.72;;;19.90;65.20;;;;;;5033250;28;20052;-69
2022/07/06 03:07:44;;;;;;;5.28;4.32;;;19.90;65.10;;;;;;5032004;28;20079;-69
2022/07/06 03:10:09;;;;;;;6.15;4.40;;;19.80;65.20;;;;;;5033194;28;20036;-69
2022/07/06 03:12:35;;;;;;;5.88;4.45;;;19.80;65.30;;;;;;5033192;28;20487;-69
2022/07/06 03:15:01;;;;;;;5.57;4.20;;;19.90;65.30;;;;;;5032242;28;20036;-69
2022/07/06 03:17:27;;;;;;;6.50;4.07;;;19.80;65.30;;;;;;5033236;28;20029;-69
2022/07/06 03:19:53;;;;;;;6.25;4.90;;;19.80;66.20;;;;;;5033498;28;20112;-69
2022/07/06 03:22:18;;;;;;;10.93;5.18;;;19.80;65.80;;;;;;5033135;28;20053;-70
2022/07/06 03:24:44;;;;;;;10.73;4.85;;;19.80;66.00;;;;;;5033142;28;20075;-71
2022/07/06 03:27:10;;;;;;;5.35;4.15;;;19.80;66.00;;;;;;5033033;28;20025;-69
2022/07/06 03:29:36;;;;;;;5.68;5.05;;;19.80;66.10;;;;;;5032871;28;20033;-71
2022/07/06 03:32:02;;;;;;;5.18;4.68;;;19.80;66.00;;;;;;5032916;28;20025;-70
2022/07/06 03:34:28;;;;;;;7.47;4.78;;;19.80;66.00;;;;;;5031616;28;20025;-69
2022/07/06 03:36:54;;;;;;;6.50;5.05;;;19.80;66.00;;;;;;5032923;28;20471;-69
2022/07/06 03:39:19;;;;;;;7.70;5.25;;;19.90;66.40;;;;;;5032780;28;20034;-72
2022/07/06 03:41:45;;;;;;;8.43;5.20;;;19.80;66.30;;;;;;5034376;28;20455;-70
2022/07/06 03:44:11;;;;;;;7.00;5.50;;;19.90;66.60;;;;;;5034399;28;20048;-70
2022/07/06 03:46:37;;;;;;;5.00;4.50;;;19.90;66.70;;;;;;5032360;28;20473;-70
2022/07/06 03:49:03;;;;;;;6.38;5.13;;;19.90;66.60;;;;;;5033378;28;20032;-70
2022/07/06 03:51:28;;;;;;;13.77;5.68;;;19.90;66.60;;;;;;5032054;28;20434;-69
2022/07/06 03:53:54;;;;;;;13.05;5.78;;;19.90;66.60;;;;;;5033462;28;20025;-72
2022/07/06 03:56:29;;;;;;;7.22;5.97;;;19.90;66.80;;;;;;5032858;28;20404;-70
2022/07/06 03:59:02;;;;;;;8.15;5.97;;;20.00;66.80;;;;;;5032525;28;20585;-71
2022/07/06 04:01:31;;;;;;;9.05;5.80;;;20.00;67.20;;;;;;5038618;28;20086;-70
2022/07/06 04:03:58;;;;;;;7.45;5.72;;;20.00;67.20;;;;;;5037002;28;20125;-70
2022/07/06 04:06:26;;;;;;;10.25;6.18;;;20.10;67.40;;;;;;5032511;28;20097;-69
2022/07/06 04:08:52;;;;;;;10.52;6.97;;;20.00;67.70;;;;;;5032390;28;20044;-71
2022/07/06 04:11:17;;;;;;;11.43;6.50;;;20.10;68.30;;;;;;5034470;28;20079;-71
2022/07/06 04:13:43;;;;;;;13.93;7.47;;;20.10;68.50;;;;;;5050129;28;20025;-70
2022/07/06 04:16:09;;;;;;;9.23;6.70;;;20.10;68.70;;;;;;5050793;28;20117;-69
2022/07/06 04:18:35;;;;;;;13.63;7.25;;;20.20;68.80;;;;;;5050268;28;20028;-68
2022/07/06 04:21:02;;;;;;;7.45;5.63;;;20.20;68.70;;;;;;5051797;28;20087;-69
2022/07/06 04:23:28;;;;;;;11.82;6.63;;;20.20;68.60;;;;;;5050778;28;20033;-70
2022/07/06 04:25:53;;;;;;;9.18;6.10;;;20.20;68.60;;;;;;5051961;28;20382;-70
2022/07/06 04:28:19;;;;;;;15.63;6.07;;;20.30;68.50;;;;;;5044398;28;20563;-70
2022/07/06 04:30:45;;;;;;;13.63;7.75;;;20.30;68.40;;;;;;5042837;28;20032;-71
2022/07/06 04:33:11;;;;;;;16.83;7.05;;;20.30;68.50;;;;;;5031788;28;20022;-71
2022/07/06 04:35:37;;;;;;;13.55;7.75;;;20.40;68.50;;;;;;5031921;28;20475;-68
2022/07/06 04:38:05;;;;;;;8.77;7.20;;;20.40;68.40;;;;;;5031932;28;20454;-68
2022/07/06 04:40:31;;;;;;;13.75;6.93;;;20.50;68.40;;;;;;5030466;28;20037;-71
2022/07/06 04:42:57;;;;;;;11.18;7.18;;;20.50;68.40;;;;;;5031731;28;20033;-70
2022/07/06 04:45:23;;;;;;;10.25;7.03;;;20.50;68.30;;;;;;5030554;28;20100;-69
2022/07/06 04:47:49;;;;;;;10.13;6.80;;;20.60;68.20;;;;;;5031811;28;20087;-71
2022/07/06 04:50:15;;;;;;;7.90;6.10;;;20.60;68.20;;;;;;5031841;28;20036;-69
2022/07/06 04:52:41;;;;;;;13.30;7.18;;;20.70;68.00;;;;;;5030493;28;20026;-71
2022/07/06 04:55:08;;;;;;;11.00;7.03;;;20.70;67.90;;;;;;5031495;28;20080;-71
2022/07/06 04:57:34;;;;;;;12.88;7.15;;;20.80;67.80;;;;;;5031720;28;20037;-71
2022/07/06 05:00:00;;;;;;;10.15;6.93;;;20.80;67.60;;;;;;5031640;28;20095;-69
2022/07/06 05:02:26;;;;;;;11.18;6.07;;;20.90;67.50;;;;;;5046289;28;20483;-71
2022/07/06 05:04:52;;;;;;;14.75;6.72;;;21.00;67.40;;;;;;5030400;28;20041;-69
2022/07/06 05:07:19;;;;;;;14.02;6.57;;;21.00;67.30;;;;;;5030338;28;20032;-69
2022/07/06 05:09:44;;;;;;;10.52;6.95;;;21.00;67.20;;;;;;5031397;28;20464;-69
2022/07/06 05:12:10;;;;;;;11.10;6.78;;;21.10;67.20;;;;;;5031533;28;20049;-71
2022/07/06 05:14:37;;;;;;;13.32;7.10;;;21.20;67.10;;;;;;5031549;28;20026;-71
2022/07/06 05:17:03;;;;;;;10.65;7.13;;;21.20;67.00;;;;;;5032156;28;20022;-69
2022/07/06 05:19:29;;;;;;;7.68;5.68;;;21.30;66.90;;;;;;5031273;28;20332;-69
2022/07/06 05:21:55;;;;;;;10.18;5.78;;;21.40;66.80;;;;;;5031560;28;20044;-70
2022/07/06 05:24:20;;;;;;;8.77;5.85;;;21.40;66.70;;;;;;5031676;28;20024;-71
2022/07/06 05:26:46;;;;;;;11.88;4.82;;;21.50;66.50;;;;;;5031483;28;20025;-69
2022/07/06 05:29:12;;;;;;;6.97;4.80;;;21.50;66.30;;;;;;5031802;28;20084;-71
2022/07/06 05:31:38;;;;;;;7.47;5.38;;;21.60;66.00;;;;;;5044490;28;20490;-71
2022/07/06 05:34:04;;;;;;;12.65;6.43;;;21.70;65.50;;;;;;5051254;28;20037;-70
2022/07/06 05:36:29;;;;;;;9.88;6.15;;;21.70;65.00;;;;;;5051349;28;20037;-69
2022/07/06 05:38:55;;;;;;;9.90;6.35;;;21.70;65.60;;;;;;5053474;28;20029;-69
2022/07/06 05:41:21;;;;;;;8.38;6.07;;;21.80;64.80;;;;;;5039355;28;20033;-70
2022/07/06 05:43:47;;;;;;;8.55;5.28;;;21.90;64.70;;;;;;5034928;28;20028;-70
2022/07/06 05:46:13;;;;;;;6.82;5.97;;;21.90;64.70;;;;;;5034923;28;20022;-69
2022/07/06 05:51:22;;;;;;;;;;;22.00;64.40;;;;;;5052297;28;20093;-71
2022/07/06 05:53:48;;;;;;;10.40;5.60;;;22.10;64.50;;;;;;5054746;28;19995;-70
2022/07/06 05:56:14;;;;;;;11.93;6.43;;;22.10;63.60;;;;;;5038270;28;20162;-71
2022/07/06 05:58:40;;;;;;;6.82;5.20;;;22.10;63.00;;;;;;5047520;28;20529;-70
2022/07/06 06:01:07;;;;;;;10.45;5.57;;;22.20;62.40;;;;;;5038475;28;20052;-72
2022/07/06 06:03:33;;;;;;;11.07;5.88;;;22.20;62.20;;;;;;5034295;28;20022;-71
2022/07/06 06:05:59;;;;;;;10.90;4.70;;;22.30;61.90;;;;;;5035364;28;20100;-73
2022/07/06 06:08:25;;;;;;;9.10;5.38;;;22.30;61.70;;;;;;5037542;28;20029;-72
2022/07/06 06:10:52;;;;;;;12.77;4.63;;;22.40;61.30;;;;;;5037478;28;20108;-71
2022/07/06 06:13:18;;;;;;;8.75;4.88;;;22.40;60.60;;;;;;5035344;28;20053;-72
2022/07/06 06:15:44;;;;;;;7.43;4.20;;;22.40;60.00;;;;;;5049022;28;20052;-71
2022/07/06 06:18:10;;;;;;;9.15;3.85;;;22.50;59.10;;;;;;5038019;28;20025;-70
2022/07/06 06:20:36;;;;;;;5.38;3.58;;;22.50;59.00;;;;;;5049673;28;20082;-72
2022/07/06 06:23:04;;;;;;;10.30;3.55;;;22.60;58.60;;;;;;5044547;28;20664;-71
2022/07/06 06:25:31;;;;;;;7.85;4.03;;;22.60;58.30;;;;;;5041174;28;20526;-71
2022/07/06 06:27:57;;;;;;;9.10;3.78;;;22.70;57.60;;;;;;5036326;28;20490;-72
2022/07/06 06:30:22;;;;;;;10.93;5.47;;;22.70;57.50;;;;;;5053748;28;20079;-72
2022/07/06 06:32:48;;;;;;;11.82;6.30;;;22.80;56.80;;;;;;5044082;28;20083;-72
2022/07/06 06:35:14;;;;;;;10.77;5.60;;;22.90;56.50;;;;;;5048209;28;20111;-72
2022/07/06 06:37:40;;;;;;;8.25;4.03;;;22.90;56.40;;;;;;5054838;28;20029;-71
2022/07/06 06:40:07;;;;;;;10.65;4.10;;;22.90;56.40;;;;;;5051695;28;20025;-70
2022/07/06 06:42:36;;;;;;;6.30;3.60;;;23.00;55.90;;;;;;5054515;28;20021;-69
2022/07/06 06:45:02;;;;;;;6.22;3.67;;;23.00;55.60;;;;;;5047693;28;20049;-70
2022/07/06 06:47:28;;;;;;;9.07;3.72;;;23.00;55.70;;;;;;5034983;28;20055;-71
2022/07/06 06:49:53;;;;;;;10.38;3.40;;;23.10;56.00;;;;;;5033480;28;20113;-71
2022/07/06 06:52:19;;;;;;;6.70;3.15;;;23.10;56.20;;;;;;5034448;28;20159;-71
2022/07/06 06:54:45;;;;;;;8.50;4.00;;;23.10;56.50;;;;;;5034689;28;20052;-71
2022/07/06 06:57:11;;;;;;;5.55;3.65;;;23.20;55.70;;;;;;5034451;28;20124;-72
2022/07/06 06:59:40;;;;;;;5.68;3.20;;;23.20;55.60;;;;;;5033991;28;20475;-72
2022/07/06 07:02:06;;;;;;;6.47;3.83;;;23.30;55.50;;;;;;5033230;28;20053;-72
2022/07/06 07:04:32;;;;;;;5.28;3.13;;;23.30;55.70;;;;;;5034508;28;20021;-72
2022/07/06 07:06:58;;;;;;;11.07;3.35;;;23.40;56.00;;;;;;5034432;28;20040;-69
2022/07/06 07:09:25;;;;;;;6.32;4.13;;;23.40;56.10;;;;;;5034348;28;20025;-70
2022/07/06 07:11:51;;;;;;;6.70;3.92;;;23.50;55.90;;;;;;5034323;28;20071;-70
2022/07/06 07:14:17;;;;;;;6.43;4.07;;;23.50;56.30;;;;;;5034318;28;20080;-71
2022/07/06 07:16:42;;;;;;;6.82;3.92;;;23.60;56.60;;;;;;5032971;28;20029;-71
2022/07/06 07:19:08;;;;;;;5.65;4.00;;;23.70;56.80;;;;;;5034250;28;20022;-72
2022/07/06 07:21:34;;;;;;;7.60;4.50;;;23.70;56.80;;;;;;5034073;28;20017;-71
2022/07/06 07:24:00;;;;;;;6.25;4.25;;;23.80;56.90;;;;;;5034076;28;20032;-71
2022/07/06 07:26:26;;;;;;;10.40;4.53;;;23.90;56.70;;;;;;5032836;28;20022;-72
2022/07/06 07:28:51;;;;;;;4.43;4.03;;;23.90;56.50;;;;;;5032691;28;20452;-70
2022/07/06 07:31:17;;;;;;;9.57;4.32;;;24.00;56.60;;;;;;5033914;28;20088;-72
2022/07/06 07:33:43;;;;;;;8.52;4.25;;;24.00;56.50;;;;;;5033823;28;20029;-71
2022/07/06 07:36:09;;;;;;;14.52;5.25;;;24.00;56.00;;;;;;5032411;28;20029;-71
2022/07/06 07:38:35;;;;;;;5.07;4.05;;;24.10;56.10;;;;;;5033905;28;20025;-72
2022/07/06 07:41:01;;;;;;;13.40;5.00;;;24.20;56.20;;;;;;5033875;28;20498;-72
2022/07/06 07:43:27;;;;;;;8.35;4.00;;;24.30;56.00;;;;;;5032484;28;20104;-72
2022/07/06 07:45:52;;;;;;;4.18;3.78;;;24.30;56.10;;;;;;5033637;28;20028;-70
2022/07/06 07:48:18;;;;;;;9.98;3.75;;;24.40;55.50;;;;;;5032434;28;20152;-71
2022/07/06 07:50:44;;;;;;;4.25;3.22;;;24.50;55.80;;;;;;5033704;28;20030;-71
2022/07/06 07:53:10;;;;;;;7.65;3.47;;;24.70;55.30;;;;;;5033623;28;20480;-73
2022/07/06 07:55:36;;;;;;;4.80;3.28;;;24.80;54.20;;;;;;5033447;28;20142;-73
2022/07/06 07:58:02;;;;;;;9.95;3.30;;;24.90;53.30;;;;;;5033623;28;20479;-71
2022/07/06 08:00:28;;;;;;;7.65;3.50;;;24.90;52.00;;;;;;5033110;28;20025;-69
2022/07/06 08:02:54;;;;;;;11.88;3.40;;;24.90;51.80;;;;;;5033454;28;20029;-70
2022/07/06 08:05:21;;;;;;;4.72;3.35;;;25.00;52.10;;;;;;5033512;28;20489;-70
2022/07/06 08:07:46;;;;;;;6.00;3.47;;;25.00;51.20;;;;;;5033324;28;20083;-69
2022/07/06 08:10:12;;;;;;;4.40;3.58;;;25.00;50.40;;;;;;5032000;28;20033;-69
2022/07/06 08:12:38;;;;;;;8.30;3.25;;;25.10;50.90;;;;;;5033411;28;20443;-71
2022/07/06 08:15:05;;;;;;;9.50;2.95;;;25.10;51.00;;;;;;5032085;28;20021;-70
2022/07/06 08:17:31;;;;;;;4.10;2.60;;;25.20;50.10;;;;;;5033399;28;20056;-70
2022/07/06 08:19:57;;;;;;;3.88;2.42;;;25.30;49.70;;;;;;5033192;28;20033;-71
2022/07/06 08:22:23;;;;;;;3.88;2.60;;;25.30;49.10;;;;;;5031969;28;20017;-71
2022/07/06 08:24:49;;;;;;;19.23;2.70;;;25.40;48.80;;;;;;5033536;28;20018;-71
2022/07/06 08:27:15;;;;;;;3.38;2.22;;;25.50;47.70;;;;;;5033076;28;20029;-69
2022/07/06 08:29:41;;;;;;;4.97;2.40;;;25.50;48.00;;;;;;5033172;28;20080;-72
2022/07/06 08:32:07;;;;;;;4.80;2.30;;;25.50;47.30;;;;;;5031882;28;20017;-69
2022/07/06 08:34:33;;;;;;;4.72;2.63;;;25.50;46.80;;;;;;5033126;28;20033;-71
2022/07/06 08:36:59;;;;;;;4.18;2.60;;;25.50;47.40;;;;;;5033109;28;20028;-70
2022/07/06 08:39:24;;;;;;;2.92;2.40;;;25.50;46.80;;;;;;5031626;28;20087;-71
2022/07/06 08:41:51;;;;;;;3.05;1.92;;;25.60;46.90;;;;;;5031734;28;20109;-69
2022/07/06 08:44:18;;;;;;;7.38;2.30;;;25.60;47.10;;;;;;5031608;28;20029;-69
2022/07/06 08:46:44;;;;;;;5.05;2.20;;;25.70;46.70;;;;;;5032919;28;20053;-69
2022/07/06 08:49:16;;;;;;;3.83;1.98;;;25.80;46.50;;;;;;5032883;28;20029;-69
2022/07/06 08:51:43;;;;;;;4.00;2.35;;;25.80;46.70;;;;;;5032913;28;20022;-69
2022/07/06 08:54:11;;;;;;;7.28;2.20;;;25.80;46.30;;;;;;5032921;28;20041;-70
2022/07/06 08:56:37;;;;;;;7.20;2.90;;;25.90;45.20;;;;;;5032444;28;20099;-70
2022/07/06 08:59:03;;;;;;;8.35;2.72;;;26.00;45.80;;;;;;5032724;28;20037;-69
2022/07/06 09:01:29;;;;;;;10.73;2.60;;;26.00;45.60;;;;;;5032687;28;20017;-69
2022/07/06 09:03:56;;;;;;;15.65;2.83;;;26.10;45.60;;;;;;5032702;28;20064;-69
2022/07/06 09:06:26;;;;;;;7.65;2.60;;;26.10;44.70;;;;;;5032699;28;20045;-68
2022/07/06 09:08:56;;;;;;;4.75;2.83;;;26.20;44.60;;;;;;5031435;28;20021;-69
2022/07/06 09:11:23;;;;;;;3.67;2.08;;;26.30;44.70;;;;;;5032745;28;20050;-69
2022/07/06 09:13:50;;;;;;;7.20;2.13;;;26.30;44.20;;;;;;5035338;28;20072;-70
2022/07/06 09:16:17;;;;;;;11.90;2.40;;;26.40;44.70;;;;;;5035348;28;20029;-69
2022/07/06 09:18:46;;;;;;;2.72;2.15;;;26.40;44.40;;;;;;5035334;28;20029;-69
2022/07/06 09:21:26;;;;;;;2.28;1.98;;;26.50;44.50;;;;;;5036555;28;20025;-69
2022/07/06 09:23:56;;;;;;;5.78;2.38;;;26.50;44.40;;;;;;5036536;28;20053;-70
2022/07/06 09:26:23;;;;;;;9.80;2.33;;;26.60;44.70;;;;;;5036677;28;20072;-70
2022/07/06 09:28:49;;;;;;;7.35;2.08;;;26.60;43.30;;;;;;5036464;28;20535;-69
2022/07/06 09:31:15;;;;;;;4.35;2.05;;;26.60;43.80;;;;;;5035483;28;20403;-69
2022/07/06 09:33:59;;;;;;;2.20;1.95;;;26.60;43.70;;;;;;5036362;28;20030;-71
2022/07/06 09:36:54;;;;;;;;;;;26.70;44.60;;;;;;5036885;28;20036;-70
2022/07/06 09:39:22;;;;;;;;;;;26.80;45.20;;;;;;5034541;28;20438;-69
2022/07/06 09:41:52;;;;;;;4.78;1.98;;;26.90;45.00;;;;;;5034061;28;19909;-70
2022/07/06 09:44:25;;;;;;;3.17;1.80;;;26.90;42.00;;;;;;5033895;28;20088;-69
2022/07/06 09:46:52;;;;;;;2.47;1.90;;;26.90;42.80;;;;;;5034030;28;20032;-70
2022/07/06 09:49:20;;;;;;;8.00;2.15;;;27.00;42.30;;;;;;5033945;28;20034;-69
2022/07/06 09:51:49;;;;;;;10.52;2.28;;;27.00;41.40;;;;;;5017334;28;20033;-70
2022/07/06 09:54:16;;;;;;;3.08;1.83;;;27.00;41.00;;;;;;5033793;28;20048;-70
2022/07/06 09:56:44;;;;;;;2.97;1.80;;;27.00;41.40;;;;;;5033534;28;20466;-70
2022/07/06 09:59:15;;;;;;;2.95;1.88;;;27.10;40.90;;;;;;5017032;28;20550;-70
2022/07/06 10:01:42;;;;;;;10.07;2.20;;;27.10;41.00;;;;;;5033573;28;20033;-71
2022/07/06 10:04:12;;;;;;;4.55;2.35;;;27.20;40.60;;;;;;5033622;28;20104;-70
2022/07/06 10:06:38;;;;;;;4.82;1.90;;;27.30;40.50;;;;;;5017034;28;20029;-68
2022/07/06 10:09:09;;;;;;;2.38;2.00;;;27.30;40.40;;;;;;5033540;28;20037;-70
2022/07/06 10:11:39;;;;;;;9.52;2.00;;;27.30;40.60;;;;;;5033625;28;20065;-69
2022/07/06 10:14:06;;;;;;;2.30;2.10;;;27.30;41.00;;;;;;5016873;28;20435;-68
2022/07/06 10:16:37;;;;;;;3.05;2.35;;;27.40;40.50;;;;;;5035215;28;20034;-70
2022/07/06 10:19:06;;;;;;;2.83;1.88;;;27.40;39.90;;;;;;5034222;28;20029;-68
2022/07/06 10:21:33;;;;;;;7.30;2.10;;;27.50;40.60;;;;;;5035323;28;20471;-71
2022/07/06 10:24:01;;;;;;;4.15;2.05;;;27.50;39.20;;;;;;5035045;28;20021;-71
2022/07/06 10:26:27;;;;;;;6.85;1.70;;;27.60;39.70;;;;;;5035316;28;20026;-68
2022/07/06 10:28:53;;;;;;;2.08;1.90;;;27.60;39.60;;;;;;5035249;28;20017;-70
2022/07/06 10:31:20;;;;;;;7.38;2.60;;;27.60;40.20;;;;;;5034924;28;20021;-70
2022/07/06 10:33:47;;;;;;;6.30;1.98;;;27.60;39.70;;;;;;5035027;28;20495;-69
2022/07/06 10:36:15;;;;;;;9.52;2.22;;;27.70;40.30;;;;;;5034982;28;20052;-71
2022/07/06 10:38:40;;;;;;;9.98;1.92;;;27.70;39.40;;;;;;5035104;28;20025;-67
2022/07/06 10:41:09;;;;;;;7.60;2.28;;;27.70;39.30;;;;;;5034944;28;20029;-68
2022/07/06 10:43:48;;;;;;;5.30;2.15;;;27.80;39.30;;;;;;5033810;28;20033;-68
2022/07/06 10:46:19;;;;;;;5.93;2.00;;;27.80;38.90;;;;;;5035009;28;20018;-70
2022/07/06 10:48:46;;;;;;;5.30;2.20;;;27.80;39.30;;;;;;5034991;28;20033;-70
2022/07/06 10:51:24;;;;;;;4.80;2.10;;;27.90;39.90;;;;;;5034874;28;20053;-70
2022/07/06 10:54:04;;;;;;;1.65;1.55;;;27.90;38.80;;;;;;5034915;28;20124;-71
2022/07/06 10:56:38;;;;;;;2.80;1.85;;;28.00;39.20;;;;;;5033479;28;20045;-69
2022/07/06 10:59:12;;;;;;;;;;;28.00;38.70;;;;;;5035266;28;20104;-68
2022/07/06 11:01:39;;;;;;;8.15;2.42;;;28.20;40.50;;;;;;5034467;28;20008;-71
2022/07/06 11:04:09;;;;;;;7.53;1.95;;;28.30;38.10;;;;;;5034497;28;20037;-68
2022/07/06 11:06:39;;;;;;;4.70;2.08;;;28.40;37.00;;;;;;5033216;28;20022;-70
2022/07/06 11:09:10;;;;;;;3.72;2.13;;;28.50;37.70;;;;;;5034375;28;20025;-69
2022/07/06 11:11:36;;;;;;;8.00;2.55;;;28.60;37.00;;;;;;5034369;28;20026;-70
2022/07/06 11:14:13;;;;;;;10.18;1.85;;;28.70;36.50;;;;;;5034447;28;20072;-72
2022/07/06 11:16:48;;;;;;;1.92;1.70;;;28.90;37.70;;;;;;5034504;28;20087;-68
2022/07/06 11:19:16;;;;;;;11.18;2.03;;;29.10;37.00;;;;;;5033189;28;20033;-70
2022/07/06 11:21:47;;;;;;;3.25;1.85;;;29.20;35.80;;;;;;5034086;28;20021;-70
2022/07/06 11:24:16;;;;;;;2.75;1.85;;;29.40;35.50;;;;;;5034312;28;20025;-71
2022/07/06 11:26:46;;;;;;;3.35;2.10;;;29.50;35.70;;;;;;5034011;28;20498;-69
2022/07/06 11:29:12;;;;;;;5.80;2.17;;;29.60;34.30;;;;;;5033988;28;20024;-70
2022/07/06 11:31:40;;;;;;;6.40;2.10;;;29.60;33.90;;;;;;5034025;28;20109;-70
2022/07/06 11:34:08;;;;;;;6.40;2.05;;;29.70;34.50;;;;;;5033540;28;20104;-68
2022/07/06 11:36:34;;;;;;;3.40;1.70;;;29.70;33.70;;;;;;5033671;28;20026;-70
2022/07/06 11:39:00;;;;;;;2.53;1.90;;;29.70;33.60;;;;;;5033937;28;20029;-69
2022/07/06 11:41:26;;;;;;;10.93;2.85;;;29.80;33.40;;;;;;5033822;28;20025;-70
2022/07/06 11:43:52;;;;;;;5.05;1.73;;;29.80;33.40;;;;;;5033739;28;20014;-70
2022/07/06 11:46:29;;;;;;;3.22;1.85;;;29.90;33.20;;;;;;5033812;28;20381;-70
2022/07/06 11:49:07;;;;;;;5.00;1.88;;;29.80;32.30;;;;;;5033813;28;20391;-71
2022/07/06 11:51:39;;;;;;;3.45;1.92;;;29.80;32.30;;;;;;5032312;28;20078;-70
2022/07/06 11:54:10;;;;;;;4.68;2.10;;;29.90;32.30;;;;;;5033641;28;20029;-70
2022/07/06 11:56:36;;;;;;;3.22;2.25;;;29.80;31.40;;;;;;5033408;28;20052;-69
2022/07/06 11:59:03;;;;;;;4.20;1.90;;;29.90;31.30;;;;;;5033515;28;20026;-69
2022/07/06 12:01:31;;;;;;;3.33;1.85;;;29.90;31.30;;;;;;5033598;28;20114;-71
2022/07/06 12:04:03;;;;;;;4.18;1.92;;;30.00;31.00;;;;;;5033416;28;20025;-72
2022/07/06 12:06:30;;;;;;;1.75;1.60;;;30.10;31.80;;;;;;5033544;28;20059;-71
2022/07/06 12:09:06;;;;;;;3.47;1.80;;;30.30;31.30;;;;;;5033440;28;20467;-71
2022/07/06 12:11:36;;;;;;;2.83;1.75;;;30.40;31.50;;;;;;5033519;28;20037;-69
2022/07/06 12:14:18;;;;;;;7.72;2.00;;;30.50;29.90;;;;;;5033288;28;20025;-71
2022/07/06 12:16:45;;;;;;;5.10;1.98;;;30.50;29.70;;;;;;5032037;28;20558;-71
2022/07/06 12:19:12;;;;;;;5.82;1.80;;;30.50;30.00;;;;;;5033333;28;20083;-71
2022/07/06 12:21:46;;;;;;;3.63;1.73;;;30.60;29.60;;;;;;5033169;28;20053;-69
2022/07/06 12:24:33;;;;;;;3.30;1.70;;;30.60;30.00;;;;;;5033093;28;20017;-69
2022/07/06 12:27:11;;;;;;;3.83;1.95;;;30.60;29.60;;;;;;5031887;28;20698;-71
2022/07/06 12:29:37;;;;;;;4.65;2.33;;;30.70;29.60;;;;;;5033016;28;20104;-71
2022/07/06 12:32:05;;;;;;;5.38;1.88;;;30.60;29.00;;;;;;5033045;28;20113;-70
2022/07/06 12:34:34;;;;;;;3.33;1.80;;;30.60;28.10;;;;;;5032934;28;20022;-71
2022/07/06 12:37:06;;;;;;;3.28;1.75;;;30.70;28.80;;;;;;5032977;28;20024;-71
2022/07/06 12:39:44;;;;;;;3.70;2.10;;;30.70;29.50;;;;;;5033079;28;20022;-71
2022/07/06 12:42:10;;;;;;;1.75;1.60;;;30.80;28.80;;;;;;5031682;28;20021;-70
2022/07/06 12:44:47;;;;;;;2.38;1.65;;;30.80;28.40;;;;;;5032896;28;20025;-69
2022/07/06 12:47:17;;;;;;;8.00;1.85;;;30.90;28.60;;;;;;5032908;28;20097;-69
2022/07/06 12:49:43;;;;;;;3.15;1.73;;;31.00;28.60;;;;;;5031713;28;20021;-71